Time;durP1;ratioP1;P1;durP2;ratioP2;P2;SDS_P1;SDS_P2;PMS_P1;PMS_P2;Temp;Humidity;BMP_temperature;BMP_pressure;BME280_temperature;BME280_humidity;BME280_pressure;Samples;Min_cycle;Max_cycle;Signal;HPM_P1;HPM_P2
2022/03/12 00:00:54;;;;;;;1.87;1.10;;;;;;;;;;5082260;28;20028;-70
2022/03/12 00:03:20;;;;;;;1.47;1.10;;;;;;;;;;5106104;28;20471;-69
2022/03/12 00:05:53;;;;;;;2.47;1.13;;;;;;;;;;5103363;28;20028;-69
2022/03/12 00:08:19;;;;;;;2.00;1.03;;;;;;;;;;5108775;28;20369;-69
2022/03/12 00:10:50;;;;;;;2.40;1.00;;;;;;;;;;5099330;28;20373;-68
2022/03/12 00:13:15;;;;;;;2.37;1.33;;;;;;;;;;5108634;28;20437;-68
2022/03/12 00:15:41;;;;;;;4.70;0.90;;;;;;;;;;5103591;28;20469;-69
2022/03/12 00:18:09;;;;;;;2.07;1.00;;;;;;;;;;5108880;28;20114;-69
2022/03/12 00:20:34;;;;;;;2.93;1.07;;;;;;;;;;5104467;28;20036;-68
2022/03/12 00:23:00;;;;;;;5.80;1.57;;;;;;;;;;5095463;28;20028;-70
2022/03/12 00:25:26;;;;;;;4.30;1.00;;;;;;;;;;5102652;28;20031;-69
2022/03/12 00:27:51;;;;;;;5.47;1.43;;;;;;;;;;5092767;28;20020;-70
2022/03/12 00:30:19;;;;;;;2.03;0.90;;;;;;;;;;5112875;28;20028;-69
2022/03/12 00:32:44;;;;;;;2.93;1.07;;;;;;;;;;5112836;28;20500;-67
2022/03/12 00:35:10;;;;;;;2.10;1.20;;;;;;;;;;5112216;28;20030;-70
2022/03/12 00:37:35;;;;;;;1.63;1.07;;;;;;;;;;5111762;28;20019;-70
2022/03/12 00:40:01;;;;;;;2.87;1.17;;;;;;;;;;5114485;28;20023;-70
2022/03/12 00:42:26;;;;;;;3.10;1.17;;;;;;;;;;5103895;28;20127;-70
2022/03/12 00:44:51;;;;;;;2.63;1.00;;;;;;;;;;5115066;28;20024;-70
2022/03/12 00:47:16;;;;;;;5.20;1.43;;;;;;;;;;5113247;28;20028;-70
2022/03/12 00:49:43;;;;;;;3.97;1.23;;;;;;;;;;5110284;28;20027;-70
2022/03/12 00:52:09;;;;;;;3.00;1.60;;;;;;;;;;5114092;28;20106;-69
2022/03/12 00:54:36;;;;;;;3.73;1.23;;;;;;;;;;5110521;28;20103;-68
2022/03/12 00:57:01;;;;;;;7.37;1.30;;;;;;;;;;5113855;28;20039;-67
2022/03/12 00:59:26;;;;;;;3.57;1.20;;;;;;;;;;5105099;28;20077;-67
2022/03/12 01:01:51;;;;;;;2.47;1.20;;;;;;;;;;5114540;28;20035;-68
2022/03/12 01:04:16;;;;;;;2.90;1.30;;;;;;;;;;5114161;28;20019;-70
2022/03/12 01:06:42;;;;;;;3.40;1.13;;;;;;;;;;5113647;28;20042;-69
2022/03/12 01:09:09;;;;;;;5.83;1.70;;;;;;;;;;5112193;28;20036;-69
2022/03/12 01:11:34;;;;;;;2.73;0.93;;;;;;;;;;5108014;28;20555;-67
2022/03/12 01:13:59;;;;;;;5.57;1.57;;;;;;;;;;5094083;28;20059;-69
2022/03/12 01:16:24;;;;;;;1.77;1.33;;;;;;;;;;5105050;28;20016;-68
2022/03/12 01:18:50;;;;;;;2.50;1.33;;;;;;;;;;5111926;28;20042;-69
2022/03/12 01:21:17;;;;;;;3.50;1.40;;;;;;;;;;5094377;28;20054;-69
2022/03/12 01:23:43;;;;;;;2.87;1.40;;;;;;;;;;5097255;28;20019;-68
2022/03/12 01:26:10;;;;;;;2.47;1.30;;;;;;;;;;5102938;28;20048;-69
2022/03/12 01:28:35;;;;;;;1.97;1.20;;;;;;;;;;5113178;27;20429;-68
2022/03/12 01:31:01;;;;;;;2.40;1.33;;;;;;;;;;5097086;28;20020;-70
2022/03/12 01:33:26;;;;;;;2.90;1.27;;;;;;;;;;5100984;28;20076;-70
2022/03/12 01:35:51;;;;;;;3.40;1.47;;;;;;;;;;5112846;28;20031;-69
2022/03/12 01:38:17;;;;;;;5.53;1.53;;;;;;;;;;5112422;28;20040;-70
2022/03/12 01:40:42;;;;;;;2.30;1.30;;;;;;;;;;5108065;28;20034;-68
2022/03/12 01:43:07;;;;;;;3.97;1.47;;;;;;;;;;5111791;28;20035;-68
2022/03/12 01:45:35;;;;;;;3.87;1.60;;;;;;;;;;5093714;28;20468;-70
2022/03/12 01:48:01;;;;;;;3.00;1.50;;;;;;;;;;5094618;28;20476;-69
2022/03/12 01:50:31;;;;;;;2.27;1.30;;;;;;;;;;5097416;28;20047;-69
2022/03/12 01:53:01;;;;;;;4.17;1.40;;;;;;;;;;5111380;28;20476;-68
2022/03/12 01:55:31;;;;;;;2.83;1.40;;;;;;;;;;5110167;28;20032;-68
2022/03/12 01:57:58;;;;;;;3.63;1.43;;;;;;;;;;5099099;28;20024;-69
2022/03/12 02:00:25;;;;;;;3.17;1.20;;;;;;;;;;5110452;28;20501;-68
2022/03/12 02:02:53;;;;;;;4.60;1.20;;;;;;;;;;5106813;28;20157;-69
2022/03/12 02:05:19;;;;;;;2.30;1.27;;;;;;;;;;5113122;28;20069;-69
2022/03/12 02:07:44;;;;;;;3.90;1.67;;;;;;;;;;5113146;28;20483;-68
2022/03/12 02:10:10;;;;;;;2.27;1.13;;;;;;;;;;5113486;28;20019;-69
2022/03/12 02:12:37;;;;;;;4.63;1.70;;;;;;;;;;5110447;28;20027;-69
2022/03/12 02:15:02;;;;;;;3.57;1.50;;;;;;;;;;5112053;28;20016;-69
2022/03/12 02:17:27;;;;;;;5.13;1.03;;;;;;;;;;5106107;28;20034;-69
2022/03/12 02:19:52;;;;;;;4.27;1.23;;;;;;;;;;5111470;28;20595;-69
2022/03/12 02:22:18;;;;;;;2.10;1.40;;;;;;;;;;5109325;28;20039;-68
2022/03/12 02:24:43;;;;;;;3.33;1.50;;;;;;;;;;5103404;28;20111;-69
2022/03/12 02:27:10;;;;;;;2.97;1.80;;;;;;;;;;5112301;28;20016;-69
2022/03/12 02:29:35;;;;;;;4.03;1.53;;;;;;;;;;5113052;28;20104;-68
2022/03/12 02:32:03;;;;;;;3.37;2.40;;;;;;;;;;5111255;28;20114;-68
2022/03/12 02:34:47;;;;;;;2.70;1.60;;;;;;;;;;5102051;28;20024;-69
2022/03/12 02:37:25;;;;;;;2.97;1.53;;;;;;;;;;5092595;28;20530;-69
2022/03/12 02:39:50;;;;;;;3.63;1.77;;;;;;;;;;5091195;28;20533;-69
2022/03/12 02:42:17;;;;;;;6.43;1.97;;;;;;;;;;5102515;28;20027;-69
2022/03/12 02:44:43;;;;;;;4.70;1.70;;;;;;;;;;5101329;28;20051;-69
2022/03/12 02:47:11;;;;;;;2.80;1.20;;;;;;;;;;5092521;28;20054;-69
2022/03/12 02:49:37;;;;;;;2.97;1.57;;;;;;;;;;5091918;28;20058;-69
2022/03/12 02:52:03;;;;;;;4.63;1.60;;;;;;;;;;5092077;28;20026;-69
2022/03/12 02:54:28;;;;;;;3.40;1.90;;;;;;;;;;5096957;28;20425;-69
2022/03/12 02:56:56;;;;;;;2.40;1.43;;;;;;;;;;5110040;28;20059;-69
2022/03/12 02:59:21;;;;;;;3.57;1.83;;;;;;;;;;5094504;28;20062;-69
2022/03/12 03:01:47;;;;;;;1.77;1.10;;;;;;;;;;5111012;28;20043;-68
2022/03/12 03:04:12;;;;;;;2.97;1.77;;;;;;;;;;5102494;28;20030;-69
2022/03/12 03:06:38;;;;;;;3.77;1.80;;;;;;;;;;5101565;28;20106;-69
2022/03/12 03:09:04;;;;;;;2.30;1.43;;;;;;;;;;5108902;28;20311;-69
2022/03/12 03:11:35;;;;;;;4.40;1.70;;;;;;;;;;5111108;28;20024;-70
2022/03/12 03:14:00;;;;;;;2.13;1.50;;;;;;;;;;5107581;28;20019;-69
2022/03/12 03:16:27;;;;;;;4.43;1.50;;;;;;;;;;5100964;28;20024;-69
2022/03/12 03:18:53;;;;;;;2.37;1.37;;;;;;;;;;5102248;28;20023;-69
2022/03/12 03:21:27;;;;;;;3.20;1.43;;;;;;;;;;5097869;28;20031;-69
2022/03/12 03:23:53;;;;;;;5.97;1.40;;;;;;;;;;5097374;28;20016;-68
2022/03/12 03:26:33;;;;;;;3.67;1.70;;;;;;;;;;5107593;28;20069;-68
2022/03/12 03:29:00;;;;;;;2.93;1.47;;;;;;;;;;5110266;28;20008;-69
2022/03/12 03:31:25;;;;;;;2.53;1.50;;;;;;;;;;5110783;28;20024;-68
2022/03/12 03:33:50;;;;;;;2.70;1.27;;;;;;;;;;5098647;28;20028;-69
2022/03/12 03:36:16;;;;;;;4.73;1.80;;;;;;;;;;5105309;28;20383;-68
2022/03/12 03:38:41;;;;;;;5.13;1.57;;;;;;;;;;5109604;28;20031;-69
2022/03/12 03:41:06;;;;;;;3.30;1.70;;;;;;;;;;5091178;28;20035;-68
2022/03/12 03:43:31;;;;;;;3.37;1.80;;;;;;;;;;5101120;28;20435;-69
2022/03/12 03:45:57;;;;;;;8.03;1.70;;;;;;;;;;5094839;28;20051;-69
2022/03/12 03:48:23;;;;;;;4.77;1.70;;;;;;;;;;5101920;28;20022;-69
2022/03/12 03:50:48;;;;;;;2.43;1.43;;;;;;;;;;5091147;28;20012;-69
2022/03/12 03:53:19;;;;;;;4.30;1.53;;;;;;;;;;5095748;28;20036;-67
2022/03/12 03:55:45;;;;;;;3.27;1.20;;;;;;;;;;5104367;28;20071;-69
2022/03/12 03:58:14;;;;;;;3.00;1.47;;;;;;;;;;5110441;28;20047;-68
2022/03/12 04:00:44;;;;;;;4.53;1.67;;;;;;;;;;5111525;28;20055;-68
2022/03/12 04:03:11;;;;;;;2.63;1.43;;;;;;;;;;5105787;28;20028;-68
2022/03/12 04:05:39;;;;;;;2.97;1.30;;;;;;;;;;5097321;28;20053;-69
2022/03/12 04:08:07;;;;;;;2.97;1.40;;;;;;;;;;5099491;28;20038;-68
2022/03/12 04:10:32;;;;;;;3.07;1.60;;;;;;;;;;5114137;28;20047;-69
2022/03/12 04:12:58;;;;;;;2.60;1.50;;;;;;;;;;5105931;28;20020;-67
2022/03/12 04:15:24;;;;;;;4.07;1.83;;;;;;;;;;5094781;28;20024;-67
2022/03/12 04:17:53;;;;;;;3.40;1.30;;;;;;;;;;5104416;28;20023;-68
2022/03/12 04:20:19;;;;;;;2.97;1.37;;;;;;;;;;5114603;28;20024;-68
2022/03/12 04:22:46;;;;;;;2.97;1.53;;;;;;;;;;5109304;28;20043;-68
2022/03/12 04:25:12;;;;;;;5.87;1.67;;;;;;;;;;5109371;28;20046;-68
2022/03/12 04:27:46;;;;;;;3.67;1.20;;;;;;;;;;5106089;28;20480;-68
2022/03/12 04:30:12;;;;;;;1.87;1.00;;;;;;;;;;5098733;28;20021;-69
2022/03/12 04:32:38;;;;;;;2.27;1.17;;;;;;;;;;5098110;28;20020;-68
2022/03/12 04:35:05;;;;;;;3.33;1.37;;;;;;;;;;5100338;28;20302;-66
2022/03/12 04:37:30;;;;;;;2.33;1.33;;;;;;;;;;5109312;28;20030;-68
2022/03/12 04:39:56;;;;;;;3.47;1.30;;;;;;;;;;5113966;28;20098;-68
2022/03/12 04:42:22;;;;;;;1.87;1.27;;;;;;;;;;5099530;28;20139;-68
2022/03/12 04:44:48;;;;;;;2.77;1.30;;;;;;;;;;5106551;28;20107;-68
2022/03/12 04:47:13;;;;;;;2.60;1.53;;;;;;;;;;5115218;28;20065;-69
2022/03/12 04:49:38;;;;;;;2.77;1.10;;;;;;;;;;5107247;27;20023;-68
2022/03/12 04:52:04;;;;;;;5.23;1.10;;;;;;;;;;5110497;28;20370;-68
2022/03/12 04:54:32;;;;;;;3.10;1.30;;;;;;;;;;5102561;28;20028;-69
2022/03/12 04:56:58;;;;;;;3.63;1.10;;;;;;;;;;5110316;28;20059;-69
2022/03/12 04:59:23;;;;;;;1.97;1.03;;;;;;;;;;5108342;28;20016;-69
2022/03/12 05:01:48;;;;;;;2.53;1.00;;;;;;;;;;5094224;28;20020;-69
2022/03/12 05:04:13;;;;;;;3.37;1.43;;;;;;;;;;5107499;28;20043;-69
2022/03/12 05:06:39;;;;;;;10.10;1.63;;;;;;;;;;5112639;28;20011;-69
2022/03/12 05:09:05;;;;;;;5.73;1.67;;;;;;;;;;5102338;28;20036;-66
2022/03/12 05:11:32;;;;;;;3.33;1.47;;;;;;;;;;5093878;28;20028;-69
2022/03/12 05:13:57;;;;;;;3.33;1.50;;;;;;;;;;5109204;28;20015;-69
2022/03/12 05:16:22;;;;;;;2.70;1.17;;;;;;;;;;5107008;28;20471;-69
2022/03/12 05:18:47;;;;;;;2.77;1.43;;;;;;;;;;5095180;28;20020;-67
2022/03/12 05:21:13;;;;;;;3.57;1.30;;;;;;;;;;5109522;28;20047;-69
2022/03/12 05:23:38;;;;;;;2.07;1.07;;;;;;;;;;5098303;28;20380;-69
2022/03/12 05:26:05;;;;;;;2.57;1.10;;;;;;;;;;5108562;28;20126;-69
2022/03/12 05:28:32;;;;;;;2.37;1.20;;;;;;;;;;5101499;28;20475;-69
2022/03/12 05:30:58;;;;;;;4.83;1.23;;;;;;;;;;5107029;28;20039;-67
2022/03/12 05:33:24;;;;;;;2.80;1.27;;;;;;;;;;5107133;28;20024;-69
2022/03/12 05:35:51;;;;;;;2.60;1.20;;;;;;;;;;5105727;28;20081;-69
2022/03/12 05:38:17;;;;;;;2.17;1.20;;;;;;;;;;5104955;28;20042;-69
2022/03/12 05:40:42;;;;;;;3.23;1.57;;;;;;;;;;5106192;28;20077;-69
2022/03/12 05:43:14;;;;;;;3.33;1.20;;;;;;;;;;5104287;28;20024;-69
2022/03/12 05:45:40;;;;;;;3.50;1.30;;;;;;;;;;5093316;28;20024;-69
2022/03/12 05:48:08;;;;;;;4.37;1.30;;;;;;;;;;5104568;28;20027;-70
2022/03/12 05:50:33;;;;;;;3.70;1.57;;;;;;;;;;5094542;28;20024;-69
2022/03/12 05:52:58;;;;;;;2.20;1.00;;;;;;;;;;5111925;28;20047;-69
2022/03/12 05:55:24;;;;;;;4.07;1.50;;;;;;;;;;5089239;28;20126;-69
2022/03/12 05:57:49;;;;;;;4.40;1.30;;;;;;;;;;5101592;28;20044;-68
2022/03/12 06:00:16;;;;;;;3.37;1.43;;;;;;;;;;5110051;28;20039;-69
2022/03/12 06:02:44;;;;;;;3.73;1.60;;;;;;;;;;5110879;28;20496;-69
2022/03/12 06:05:14;;;;;;;2.93;1.47;;;;;;;;;;5093183;28;20421;-69
2022/03/12 06:07:45;;;;;;;1.90;1.30;;;;;;;;;;5098953;28;20031;-69
2022/03/12 06:10:12;;;;;;;3.60;1.83;;;;;;;;;;5106750;28;20039;-68
2022/03/12 06:12:39;;;;;;;3.03;1.30;;;;;;;;;;5104275;28;20466;-68
2022/03/12 06:15:05;;;;;;;3.53;1.67;;;;;;;;;;5091820;28;20395;-68
2022/03/12 06:17:31;;;;;;;2.57;1.30;;;;;;;;;;5111193;28;20387;-70
2022/03/12 06:19:56;;;;;;;2.83;1.90;;;;;;;;;;5110799;28;20224;-69
2022/03/12 06:22:21;;;;;;;4.63;1.57;;;;;;;;;;5092745;28;20080;-69
2022/03/12 06:24:47;;;;;;;2.40;1.17;;;;;;;;;;5097961;28;20024;-69
2022/03/12 06:27:13;;;;;;;3.90;1.40;;;;;;;;;;5111547;28;20022;-68
2022/03/12 06:29:39;;;;;;;2.17;1.23;;;;;;;;;;5111960;28;20019;-69
2022/03/12 06:32:07;;;;;;;3.87;1.50;;;;;;;;;;5106808;28;20556;-70
2022/03/12 06:34:34;;;;;;;2.23;1.60;;;;;;;;;;5102764;28;20019;-69
2022/03/12 06:36:59;;;;;;;2.47;1.40;;;;;;;;;;5110603;28;20027;-72
2022/03/12 06:39:25;;;;;;;2.83;1.50;;;;;;;;;;5109119;28;20082;-69
2022/03/12 06:41:51;;;;;;;6.27;1.67;;;;;;;;;;5108934;28;20024;-69
2022/03/12 06:44:20;;;;;;;3.93;1.60;;;;;;;;;;5111175;28;20073;-67
2022/03/12 06:46:45;;;;;;;2.43;1.00;;;;;;;;;;5111651;28;20506;-69
2022/03/12 06:49:10;;;;;;;3.20;1.70;;;;;;;;;;5111591;28;20020;-69
2022/03/12 06:51:38;;;;;;;3.30;1.60;;;;;;;;;;5100137;28;20073;-69
2022/03/12 06:54:05;;;;;;;5.00;1.53;;;;;;;;;;5098080;28;20658;-68
2022/03/12 06:56:34;;;;;;;2.87;1.30;;;;;;;;;;5108518;28;20562;-68
2022/03/12 06:58:59;;;;;;;2.87;1.30;;;;;;;;;;5112044;28;20030;-69
2022/03/12 07:01:25;;;;;;;3.03;1.20;;;;;;;;;;5111160;28;20418;-69
2022/03/12 07:03:50;;;;;;;3.57;1.37;;;;;;;;;;5110511;28;20023;-69
2022/03/12 07:06:15;;;;;;;4.83;1.50;;;;;;;;;;5111228;28;20030;-69
2022/03/12 07:08:40;;;;;;;3.47;1.60;;;;;;;;;;5110426;28;20467;-69
2022/03/12 07:11:06;;;;;;;5.47;1.73;;;;;;;;;;5107201;28;20046;-69
2022/03/12 07:13:31;;;;;;;2.60;1.30;;;;;;;;;;5094088;28;20472;-68
2022/03/12 07:15:57;;;;;;;3.27;1.60;;;;;;;;;;5095137;28;20165;-68
2022/03/12 07:18:22;;;;;;;5.80;1.60;;;;;;;;;;5111874;28;20058;-70
2022/03/12 07:20:47;;;;;;;3.37;1.40;;;;;;;;;;5110269;28;20046;-69
2022/03/12 07:23:13;;;;;;;2.80;1.50;;;;;;;;;;5109244;28;20019;-69
2022/03/12 07:25:38;;;;;;;4.43;1.63;;;;;;;;;;5103220;28;20011;-69
2022/03/12 07:28:04;;;;;;;1.83;1.10;;;;;;;;;;5111572;28;20476;-69
2022/03/12 07:30:30;;;;;;;3.20;1.40;;;;;;;;;;5110931;28;20480;-69
2022/03/12 07:32:56;;;;;;;2.83;1.57;;;;;;;;;;5109966;28;20032;-69
2022/03/12 07:35:21;;;;;;;3.07;1.57;;;;;;;;;;5112152;28;20072;-69
2022/03/12 07:37:46;;;;;;;3.77;1.73;;;;;;;;;;5101082;28;20059;-67
2022/03/12 07:40:13;;;;;;;2.70;1.53;;;;;;;;;;5115896;28;20015;-69
2022/03/12 07:42:38;;;;;;;6.50;1.60;;;;;;;;;;5114158;28;20526;-69
2022/03/12 07:45:04;;;;;;;4.53;1.73;;;;;;;;;;5114963;28;20027;-68
2022/03/12 07:47:29;;;;;;;3.13;1.70;;;;;;;;;;5114753;28;20376;-69
2022/03/12 07:49:54;;;;;;;2.50;1.37;;;;;;;;;;5111461;28;20019;-68
2022/03/12 07:52:20;;;;;;;6.43;1.70;;;;;;;;;;5116176;28;20472;-68
2022/03/12 07:54:45;;;;;;;2.13;1.40;;;;;;;;;;5106857;28;20245;-69
2022/03/12 07:57:10;;;;;;;2.77;1.60;;;;;;;;;;5101409;28;20040;-69
2022/03/12 07:59:36;;;;;;;2.87;1.30;;;;;;;;;;5106357;28;20015;-69
2022/03/12 08:02:02;;;;;;;2.23;1.30;;;;;;;;;;5114233;28;20020;-69
2022/03/12 08:04:30;;;;;;;3.77;1.60;;;;;;;;;;5111148;28;20483;-69
2022/03/12 08:07:02;;;;;;;4.23;1.27;;;;;;;;;;5106148;28;20027;-68
2022/03/12 08:09:27;;;;;;;4.37;1.87;;;;;;;;;;5104522;28;20031;-68
2022/03/12 08:11:52;;;;;;;3.10;1.40;;;;;;;;;;5101027;28;20015;-69
2022/03/12 08:14:20;;;;;;;3.23;1.30;;;;;;;;;;5111569;28;20495;-68
2022/03/12 08:16:47;;;;;;;3.23;1.77;;;;;;;;;;5102953;28;20302;-69
2022/03/12 08:19:12;;;;;;;5.03;2.07;;;;;;;;;;5103699;28;20089;-68
2022/03/12 08:21:38;;;;;;;2.50;1.70;;;;;;;;;;5108244;28;20480;-68
2022/03/12 08:24:03;;;;;;;3.47;1.43;;;;;;;;;;5110847;28;20454;-68
2022/03/12 08:26:29;;;;;;;4.13;1.63;;;;;;;;;;5107810;28;20492;-69
2022/03/12 08:28:55;;;;;;;3.07;1.80;;;;;;;;;;5113306;28;20024;-69
2022/03/12 08:31:20;;;;;;;3.53;2.10;;;;;;;;;;5103605;28;20472;-68
2022/03/12 08:33:45;;;;;;;2.37;1.50;;;;;;;;;;5110072;28;20031;-69
2022/03/12 08:36:10;;;;;;;3.33;1.70;;;;;;;;;;5113968;28;20027;-68
2022/03/12 08:38:36;;;;;;;4.13;1.80;;;;;;;;;;5115085;28;20080;-68
2022/03/12 08:41:05;;;;;;;4.47;2.00;;;;;;;;;;5110586;28;20476;-69
2022/03/12 08:43:30;;;;;;;4.33;1.90;;;;;;;;;;5113931;28;20181;-69
2022/03/12 08:45:55;;;;;;;2.90;1.50;;;;;;;;;;5114469;28;20110;-69
2022/03/12 08:48:20;;;;;;;2.87;2.20;;;;;;;;;;5103801;28;20043;-69
2022/03/12 08:50:47;;;;;;;6.40;2.23;;;;;;;;;;5095719;28;20039;-66
2022/03/12 08:53:12;;;;;;;3.67;1.70;;;;;;;;;;5108949;28;20046;-68
2022/03/12 08:55:38;;;;;;;2.60;1.57;;;;;;;;;;5110662;28;20476;-70
2022/03/12 08:58:04;;;;;;;5.13;1.77;;;;;;;;;;5110373;28;20069;-68
2022/03/12 09:00:29;;;;;;;3.23;1.77;;;;;;;;;;5111986;28;20422;-67
2022/03/12 09:02:54;;;;;;;3.03;1.33;;;;;;;;;;5096673;28;20047;-65
2022/03/12 09:05:19;;;;;;;3.30;1.90;;;;;;;;;;5114123;28;20027;-66
2022/03/12 09:07:45;;;;;;;3.50;2.10;;;;;;;;;;5113206;28;20019;-68
2022/03/12 09:10:11;;;;;;;3.63;1.80;;;;;;;;;;5113019;28;20467;-63
2022/03/12 09:12:37;;;;;;;4.03;2.00;;;;;;;;;;5111399;28;20467;-67
2022/03/12 09:15:03;;;;;;;3.20;1.70;;;;;;;;;;5096241;28;20046;-68
2022/03/12 09:17:28;;;;;;;4.13;1.70;;;;;;;;;;5095210;28;20028;-65
2022/03/12 09:19:53;;;;;;;4.27;1.90;;;;;;;;;;5093274;28;20023;-65
2022/03/12 09:22:18;;;;;;;3.53;1.90;;;;;;;;;;5093845;28;20461;-64
2022/03/12 09:24:44;;;;;;;1.57;1.13;;;;;;;;;;5097559;28;20100;-70
2022/03/12 09:27:09;;;;;;;5.47;1.77;;;;;;;;;;5109927;28;20024;-72
2022/03/12 09:29:35;;;;;;;3.43;1.60;;;;;;;;;;5114122;28;20031;-70
2022/03/12 09:32:01;;;;;;;3.13;1.40;;;;;;;;;;5104866;28;20028;-66
2022/03/12 09:34:26;;;;;;;1.70;1.10;;;;;;;;;;5085312;28;20036;-66
2022/03/12 09:36:51;;;;;;;2.43;1.37;;;;;;;;;;5099965;28;20034;-66
2022/03/12 09:39:16;;;;;;;3.03;1.67;;;;;;;;;;5113859;28;20043;-68
2022/03/12 09:41:43;;;;;;;4.47;1.80;;;;;;;;;;5103331;28;20028;-72
2022/03/12 09:44:08;;;;;;;3.93;1.43;;;;;;;;;;5110380;28;20029;-70
2022/03/12 09:46:34;;;;;;;2.40;1.50;;;;;;;;;;5093270;28;20068;-72
2022/03/12 09:48:59;;;;;;;2.83;1.50;;;;;;;;;;5093081;28;20028;-66
2022/03/12 09:51:28;;;;;;;3.13;1.80;;;;;;;;;;5093451;28;20039;-71
2022/03/12 09:53:54;;;;;;;3.07;1.47;;;;;;;;;;5091855;28;20111;-69
2022/03/12 09:56:19;;;;;;;2.80;1.70;;;;;;;;;;5110828;28;20119;-66
2022/03/12 09:58:44;;;;;;;3.23;1.33;;;;;;;;;;5112160;28;20034;-66
2022/03/12 10:01:10;;;;;;;4.93;1.83;;;;;;;;;;5113267;28;20073;-65
2022/03/12 10:03:37;;;;;;;2.53;1.40;;;;;;;;;;5104931;28;20527;-65
2022/03/12 10:06:05;;;;;;;2.03;1.10;;;;;;;;;;5092383;28;20044;-66
2022/03/12 10:08:30;;;;;;;3.60;1.97;;;;;;;;;;5092935;28;20024;-66
2022/03/12 10:10:56;;;;;;;2.97;1.53;;;;;;;;;;5099791;28;20038;-66
2022/03/12 10:13:21;;;;;;;2.50;1.37;;;;;;;;;;5111016;28;20055;-66
2022/03/12 10:15:46;;;;;;;3.57;1.50;;;;;;;;;;5113297;28;20031;-65
2022/03/12 10:18:12;;;;;;;1.70;1.30;;;;;;;;;;5096686;28;20039;-65
2022/03/12 10:20:37;;;;;;;2.33;1.40;;;;;;;;;;5107026;28;20036;-65
2022/03/12 10:23:03;;;;;;;3.37;1.40;;;;;;;;;;5113173;28;20031;-66
2022/03/12 10:25:28;;;;;;;1.87;1.33;;;;;;;;;;5108982;28;20031;-64
2022/03/12 10:27:53;;;;;;;2.15;1.52;;;;;;;;;;5104415;28;20023;-66
2022/03/12 10:30:19;;;;;;;2.45;1.65;;;;;;;;;;5108896;28;20034;-65
2022/03/12 10:32:48;;;;;;;2.20;1.08;;;;;;;;;;5110845;28;20043;-66
2022/03/12 10:35:14;;;;;;;3.53;1.25;;;;;;;;;;5104727;28;20172;-65
2022/03/12 10:37:40;;;;;;;3.67;1.52;;;;;;;;;;5103944;28;20019;-66
2022/03/12 10:40:06;;;;;;;2.72;1.50;;;;;;;;;;5101709;28;20024;-65
2022/03/12 10:42:31;;;;;;;3.10;1.50;;;;;;;;;;5103180;28;20106;-65
2022/03/12 10:45:07;;;;;;;3.28;1.50;;;;;;;;;;5110697;28;20024;-66
2022/03/12 10:47:36;;;;;;;3.20;1.73;;;;;;;;;;5100371;28;20041;-65
2022/03/12 10:50:05;;;;;;;3.25;1.50;;;;;;;;;;5096330;28;20027;-65
2022/03/12 10:52:32;;;;;;;3.05;1.45;;;;;;;;;;5112403;28;20516;-66
2022/03/12 10:54:58;;;;;;;2.83;1.77;;;;;;;;;;5108245;28;20164;-66
2022/03/12 10:57:23;;;;;;;1.85;1.38;;;;;;;;;;5103594;28;20121;-66
2022/03/12 10:59:55;;;;;;;2.90;1.30;;;;;;;;;;5111302;28;20047;-66
2022/03/12 11:02:20;;;;;;;2.47;1.23;;;;;;;;;;5110783;28;20032;-66
2022/03/12 11:04:45;;;;;;;3.35;1.80;;;;;;;;;;5111951;28;20030;-66
2022/03/12 11:07:30;;;;;;;2.08;1.70;;;;;;;;;;5112115;28;20035;-66
2022/03/12 11:09:55;;;;;;;3.47;2.05;;;;;;;;;;5111180;28;20080;-66
2022/03/12 11:12:30;;;;;;;2.72;2.05;;;;;;;;;;5100554;28;20426;-66
2022/03/12 11:15:05;;;;;;;2.97;1.95;;;;;;;;;;5103080;28;20023;-66
2022/03/12 11:17:37;;;;;;;2.40;1.70;;;;;;;;;;5110360;28;20085;-67
2022/03/12 11:20:04;;;;;;;3.25;1.85;;;;;;;;;;5096387;28;20031;-66
2022/03/12 11:22:30;;;;;;;3.65;2.03;;;;;;;;;;5090340;28;20059;-66
2022/03/12 11:24:55;;;;;;;7.75;2.60;;;;;;;;;;5097271;28;20481;-67
2022/03/12 11:27:31;;;;;;;2.47;2.25;;;;;;;;;;5108097;28;20085;-66
2022/03/12 11:30:01;;;;;;;5.20;2.45;;;;;;;;;;5110052;28;20491;-65
2022/03/12 11:32:30;;;;;;;2.30;2.08;;;;;;;;;;5110794;28;20011;-64
2022/03/12 11:35:03;;;;;;;3.53;2.35;;;;;;;;;;5111752;28;20110;-67
2022/03/12 11:37:28;;;;;;;3.30;2.28;;;;;;;;;;5102059;28;20020;-66
2022/03/12 11:39:55;;;;;;;2.75;2.13;;;;;;;;;;5110415;28;20376;-66
2022/03/12 11:42:24;;;;;;;3.70;2.55;;;;;;;;;;5107558;28;20116;-66
2022/03/12 11:44:54;;;;;;;2.42;2.22;;;;;;;;;;5092349;28;20070;-66
2022/03/12 11:47:20;;;;;;;3.42;2.10;;;;;;;;;;5103696;28;20016;-66
2022/03/12 11:49:47;;;;;;;2.58;2.08;;;;;;;;;;5104209;28;20051;-66
2022/03/12 11:52:12;;;;;;;3.78;3.17;;;;;;;;;;5109057;28;20027;-66
2022/03/12 11:54:43;;;;;;;5.97;2.53;;;;;;;;;;5106507;28;20024;-65
2022/03/12 11:57:09;;;;;;;3.22;2.85;;;;;;;;;;5107422;28;20070;-63
2022/03/12 11:59:35;;;;;;;2.40;2.20;;;;;;;;;;5101752;28;20046;-63
2022/03/12 12:02:01;;;;;;;3.72;2.97;;;;;;;;;;5111655;28;20019;-61
2022/03/12 12:04:29;;;;;;;2.95;2.35;;;;;;;;;;5111256;28;20076;-61
2022/03/12 12:06:54;;;;;;;2.58;2.38;;;;;;;;;;5104845;28;20023;-62
2022/03/12 12:09:20;;;;;;;3.00;2.63;;;;;;;;;;5096982;28;20492;-62
2022/03/12 12:11:45;;;;;;;3.37;2.73;;;;;;;;;;5103215;28;20127;-62
2022/03/12 12:14:10;;;;;;;2.63;2.25;;;;;;;;;;5111518;28;20265;-62
2022/03/12 12:16:35;;;;;;;2.63;2.43;;;;;;;;;;5101374;28;20461;-62
2022/03/12 12:19:01;;;;;;;4.97;2.30;;;;;;;;;;5095766;28;20266;-62
2022/03/12 12:21:26;;;;;;;3.20;2.83;;;;;;;;;;5091875;28;20031;-58
2022/03/12 12:23:51;;;;;;;3.92;2.70;;;;;;;;;;5097805;28;20169;-63
2022/03/12 12:26:16;;;;;;;3.50;3.00;;;;;;;;;;5110176;28;20176;-62
2022/03/12 12:28:51;;;;;;;4.35;2.28;;;;;;;;;;5103945;28;20610;-62
2022/03/12 12:31:24;;;;;;;2.50;2.30;;;;;;;;;;5112619;28;20011;-63
2022/03/12 12:33:49;;;;;;;3.17;2.88;;;;;;;;;;5105857;28;20031;-62
2022/03/12 12:36:15;;;;;;;3.78;2.67;;;;;;;;;;5099720;28;20036;-62
2022/03/12 12:39:01;;;;;;;3.20;2.47;;;;;;;;;;5112422;28;20023;-62
2022/03/12 12:41:34;;;;;;;2.80;2.45;;;;;;;;;;5113792;28;20025;-62
2022/03/12 12:44:05;;;;;;;4.10;2.70;;;;;;;;;;5093842;28;20038;-61
2022/03/12 12:46:30;;;;;;;3.38;2.45;;;;;;;;;;5105682;28;20019;-62
2022/03/12 12:49:01;;;;;;;2.60;2.40;;;;;;;;;;5113693;28;20109;-63
2022/03/12 12:51:26;;;;;;;3.75;2.63;;;;;;;;;;5114627;28;20028;-63
2022/03/12 12:53:52;;;;;;;3.05;2.72;;;;;;;;;;5112252;28;20030;-63
2022/03/12 12:56:24;;;;;;;4.35;2.67;;;;;;;;;;5101913;28;20048;-63
2022/03/12 12:58:52;;;;;;;3.33;2.63;;;;;;;;;;5099272;28;20114;-62
2022/03/12 13:01:18;;;;;;;3.55;2.90;;;;;;;;;;5100181;28;20099;-63
2022/03/12 13:03:46;;;;;;;3.20;2.90;;;;;;;;;;5097707;28;20441;-63
2022/03/12 13:06:11;;;;;;;4.45;2.83;;;;;;;;;;5093632;28;20019;-63
2022/03/12 13:08:43;;;;;;;2.88;2.33;;;;;;;;;;5096357;28;20020;-63
2022/03/12 13:11:28;;;;;;;3.30;2.45;;;;;;;;;;5114117;28;20024;-63
2022/03/12 13:13:58;;;;;;;2.73;2.17;;;;;;;;;;5093701;28;20376;-62
2022/03/12 13:16:24;;;;;;;2.88;2.03;;;;;;;;;;5093990;28;20262;-63
2022/03/12 13:18:49;;;;;;;2.53;2.33;;;;;;;;;;5094193;28;20088;-62
2022/03/12 13:21:24;;;;;;;3.40;2.22;;;;;;;;;;5113894;28;20034;-64
2022/03/12 13:23:49;;;;;;;3.78;2.75;;;;;;;;;;5110112;28;20027;-62
2022/03/12 13:26:16;;;;;;;3.78;2.40;;;;;;;;;;5107834;28;20028;-62
2022/03/12 13:28:43;;;;;;;3.15;2.72;;;;;;;;;;5112454;28;20015;-64
2022/03/12 13:31:14;;;;;;;4.55;2.63;;;;;;;;;;5113695;28;20046;-63
2022/03/12 13:33:39;;;;;;;4.10;2.25;;;;;;;;;;5113087;28;20547;-62
2022/03/12 13:36:05;;;;;;;2.78;2.58;;;;;;;;;;5111177;28;20077;-62
2022/03/12 13:38:30;;;;;;;2.75;2.55;;;;;;;;;;5112928;28;20360;-63
2022/03/12 13:40:55;;;;;;;3.58;2.58;;;;;;;;;;5113984;28;20032;-65
2022/03/12 13:43:20;;;;;;;5.43;3.40;;;;;;;;;;5112949;28;20059;-65
2022/03/12 13:45:56;;;;;;;2.53;2.33;;;;;;;;;;5113747;28;20020;-66
2022/03/12 13:48:22;;;;;;;6.28;2.45;;;;;;;;;;5096344;28;20012;-62
2022/03/12 13:50:54;;;;;;;4.03;2.10;;;;;;;;;;5104446;28;20420;-63
2022/03/12 13:53:21;;;;;;;4.85;1.80;;;;;;;;;;5110527;28;20011;-63
2022/03/12 13:55:46;;;;;;;4.13;2.15;;;;;;;;;;5108166;28;20048;-62
2022/03/12 13:58:11;;;;;;;3.63;2.22;;;;;;;;;;5111735;28;20042;-63
2022/03/12 14:00:38;;;;;;;3.75;1.85;;;;;;;;;;5113108;28;20031;-62
2022/03/12 14:03:05;;;;;;;3.80;2.13;;;;;;;;;;5113022;28;20015;-64
2022/03/12 14:05:31;;;;;;;2.45;1.92;;;;;;;;;;5113274;28;20027;-63
2022/03/12 14:07:58;;;;;;;7.40;2.40;;;;;;;;;;5103789;28;20024;-63
2022/03/12 14:10:23;;;;;;;2.92;1.77;;;;;;;;;;5099109;28;20115;-63
2022/03/12 14:13:03;;;;;;;2.08;1.70;;;;;;;;;;5110759;28;20103;-63
2022/03/12 14:15:30;;;;;;;4.45;2.28;;;;;;;;;;5112972;28;20510;-63
2022/03/12 14:17:55;;;;;;;2.35;1.98;;;;;;;;;;5112548;28;20012;-63
2022/03/12 14:20:21;;;;;;;5.30;1.70;;;;;;;;;;5100857;27;20023;-63
2022/03/12 14:22:50;;;;;;;2.80;2.50;;;;;;;;;;5098425;28;20019;-63
2022/03/12 14:25:15;;;;;;;2.92;1.98;;;;;;;;;;5107728;28;20026;-63
2022/03/12 14:27:46;;;;;;;2.55;1.60;;;;;;;;;;5105444;28;20099;-63
2022/03/12 14:30:11;;;;;;;2.08;1.83;;;;;;;;;;5101484;28;20023;-62
2022/03/12 14:32:37;;;;;;;3.88;2.13;;;;;;;;;;5112871;28;20107;-62
2022/03/12 14:35:02;;;;;;;2.80;1.90;;;;;;;;;;5112361;28;20012;-62
2022/03/12 14:37:27;;;;;;;3.15;1.63;;;;;;;;;;5098983;28;20115;-63
2022/03/12 14:39:52;;;;;;;2.05;1.85;;;;;;;;;;5103240;28;20103;-62